createdAt,value
2023-03-30T00:01:30.583Z,57.60
2023-03-30T00:04:34.002Z,57.67
2023-03-30T00:07:37.533Z,57.82
2023-03-30T00:10:38.607Z,57.92
2023-03-30T00:13:39.540Z,58.07
2023-03-30T00:16:40.645Z,58.15
2023-03-30T00:19:41.657Z,58.14
2023-03-30T00:22:44.181Z,58.09
2023-03-30T00:25:45.692Z,58.10
2023-03-30T00:28:46.698Z,58.13
2023-03-30T00:31:48.048Z,58.08
2023-03-30T00:34:51.835Z,58.18
2023-03-30T00:37:52.893Z,58.24
2023-03-30T00:40:55.894Z,58.34
2023-03-30T00:44:04.096Z,58.45
2023-03-30T00:47:05.393Z,58.39
2023-03-30T00:50:07.445Z,58.45
2023-03-30T00:53:15.519Z,58.38
2023-03-30T00:56:22.800Z,58.52
2023-03-30T00:59:23.734Z,58.55
2023-03-30T01:02:24.975Z,58.62
2023-03-30T01:05:27.742Z,58.89
2023-03-30T01:08:31.808Z,59.07
2023-03-30T01:11:33.123Z,59.10
2023-03-30T01:14:34.571Z,59.25
2023-03-30T01:17:47.524Z,59.40
2023-03-30T01:21:09.813Z,59.45
2023-03-30T01:24:38.462Z,59.30
2023-03-30T01:27:51.296Z,59.33
2023-03-30T01:31:10.926Z,59.37
2023-03-30T01:34:24.628Z,59.36
2023-03-30T01:37:40.823Z,59.45
2023-03-30T01:41:11.973Z,59.32
2023-03-30T01:44:15.922Z,59.33
2023-03-30T01:47:19.329Z,59.28
2023-03-30T01:50:33.062Z,59.30
2023-03-30T01:53:43.313Z,59.30
2023-03-30T01:56:51.043Z,59.41
2023-03-30T01:59:56.465Z,59.46
2023-03-30T02:03:06.125Z,59.65
2023-03-30T02:06:39.246Z,59.79
2023-03-30T02:09:41.534Z,60.05
2023-03-30T02:12:44.291Z,60.16
2023-03-30T02:15:54.818Z,60.40
2023-03-30T02:18:57.085Z,60.62
2023-03-30T02:21:58.457Z,60.69
2023-03-30T02:25:08.889Z,60.80
2023-03-30T02:28:10.183Z,60.72
2023-03-30T02:31:15.102Z,60.74
2023-03-30T02:34:45.037Z,60.82
2023-03-30T02:38:14.241Z,60.71
2023-03-30T02:41:36.196Z,60.76
2023-03-30T02:44:47.975Z,60.77
2023-03-30T02:47:51.904Z,60.94
2023-03-30T02:51:18.525Z,60.95
2023-03-30T02:54:47.151Z,60.95
2023-03-30T02:58:02.443Z,60.92
2023-03-30T03:01:17.290Z,60.99
2023-03-30T03:04:25.480Z,61.26
2023-03-30T03:07:41.603Z,61.36
2023-03-30T03:10:42.787Z,61.44
2023-03-30T03:13:44.576Z,61.52
2023-03-30T03:16:47.254Z,61.67
2023-03-30T03:19:49.742Z,61.52
2023-03-30T03:22:52.012Z,61.54
2023-03-30T03:25:53.334Z,61.49
2023-03-30T03:28:54.893Z,61.43
2023-03-30T03:31:56.186Z,61.48
2023-03-30T03:34:59.068Z,61.47
2023-03-30T03:38:00.168Z,61.43
2023-03-30T03:41:01.319Z,61.47
2023-03-30T03:44:03.206Z,61.57
2023-03-30T03:47:04.435Z,61.65
2023-03-30T03:50:09.134Z,61.90
2023-03-30T03:53:11.564Z,62.02
2023-03-30T03:56:14.146Z,62.10
2023-03-30T03:59:15.103Z,62.42
2023-03-30T04:02:16.261Z,62.34
2023-03-30T04:05:17.369Z,62.30
2023-03-30T04:08:18.368Z,62.30
2023-03-30T04:11:20.731Z,62.40
2023-03-30T04:14:38.992Z,62.43
2023-03-30T04:17:57.568Z,62.30
2023-03-30T04:21:12.481Z,62.38
2023-03-30T04:24:28.950Z,62.40
2023-03-30T04:28:04.256Z,62.40
2023-03-30T04:31:46.313Z,62.46
2023-03-30T04:35:20.429Z,62.73
2023-03-30T04:38:57.828Z,62.90
2023-03-30T04:42:19.431Z,63.15
2023-03-30T04:45:32.948Z,63.29
2023-03-30T04:49:19.228Z,63.43
2023-03-30T04:52:40.529Z,63.36
2023-03-30T04:56:11.079Z,63.35
2023-03-30T04:59:18.424Z,63.49
2023-03-30T05:02:42.565Z,63.47
2023-03-30T05:05:52.757Z,63.45
2023-03-30T05:09:12.255Z,63.48
2023-03-30T05:12:35.612Z,63.48
2023-03-30T05:15:52.450Z,63.53
2023-03-30T05:19:22.620Z,63.63
2023-03-30T05:22:46.299Z,63.82
2023-03-30T05:26:06.634Z,63.88
2023-03-30T05:29:27.809Z,64.00
2023-03-30T05:32:55.810Z,63.97
2023-03-30T05:36:25.946Z,64.02
2023-03-30T05:39:45.578Z,63.81
2023-03-30T05:43:09.265Z,63.87
2023-03-30T05:46:16.710Z,63.94
2023-03-30T05:49:34.371Z,63.89
2023-03-30T05:53:28.763Z,63.75
2023-03-30T05:56:53.379Z,63.71
2023-03-30T06:00:28.209Z,63.55
2023-03-30T06:03:39.221Z,63.47
2023-03-30T06:06:41.679Z,63.47
2023-03-30T06:09:43.309Z,63.42
2023-03-30T06:13:04.250Z,63.59
2023-03-30T06:16:28.963Z,63.66
2023-03-30T06:19:33.520Z,63.81
2023-03-30T06:22:36.825Z,63.98
2023-03-30T06:25:54.658Z,63.96
2023-03-30T06:29:01.424Z,64.13
2023-03-30T06:32:03.062Z,64.16
2023-03-30T06:35:25.566Z,64.00
2023-03-30T06:38:27.019Z,63.84
2023-03-30T06:41:29.369Z,63.78
2023-03-30T06:44:30.644Z,63.70
2023-03-30T06:47:34.798Z,63.63
2023-03-30T06:50:36.284Z,63.74
2023-03-30T06:53:46.681Z,63.51
2023-03-30T06:56:49.079Z,63.52
2023-03-30T06:59:50.445Z,63.46
2023-03-30T07:02:54.463Z,63.48
2023-03-30T07:06:01.365Z,63.45
2023-03-30T07:09:12.261Z,63.53
2023-03-30T07:12:13.437Z,63.54
2023-03-30T07:15:14.608Z,63.57
2023-03-30T07:18:15.809Z,63.65
2023-03-30T07:21:18.433Z,63.67
2023-03-30T07:24:19.367Z,63.68
2023-03-30T07:27:25.285Z,63.55
2023-03-30T07:30:28.291Z,63.40
2023-03-30T07:33:34.100Z,63.36
2023-03-30T07:36:35.947Z,63.21
2023-03-30T07:39:37.383Z,63.06
2023-03-30T07:42:38.407Z,62.89
2023-03-30T07:45:39.769Z,62.78
2023-03-30T07:48:42.256Z,62.63
2023-03-30T07:51:43.439Z,62.52
2023-03-30T07:55:04.873Z,62.32
2023-03-30T07:58:26.756Z,62.18
2023-03-30T08:01:28.082Z,61.87
2023-03-30T08:04:45.022Z,61.91
2023-03-30T08:07:47.224Z,61.70
2023-03-30T08:10:54.180Z,61.64
2023-03-30T08:14:05.788Z,61.65
2023-03-30T08:17:10.097Z,61.40
2023-03-30T08:20:11.636Z,61.39
2023-03-30T08:23:16.191Z,61.11
2023-03-30T08:26:17.458Z,60.98
2023-03-30T08:29:18.612Z,60.77
2023-03-30T08:32:19.866Z,60.70
2023-03-30T08:35:21.204Z,60.54
2023-03-30T08:38:22.242Z,60.52
2023-03-30T08:41:53.066Z,60.28
2023-03-30T08:44:56.334Z,60.05
2023-03-30T08:47:57.525Z,59.92
2023-03-30T08:51:07.171Z,59.80
2023-03-30T08:54:27.783Z,59.60
2023-03-30T08:57:32.044Z,59.46
2023-03-30T09:00:39.439Z,59.33
2023-03-30T09:03:58.477Z,59.11
2023-03-30T09:07:11.573Z,59.03
2023-03-30T09:10:14.825Z,58.90
2023-03-30T09:13:20.497Z,58.77
2023-03-30T09:16:38.457Z,58.69
2023-03-30T09:19:59.780Z,58.68
2023-03-30T09:23:01.938Z,58.51
2023-03-30T09:26:08.315Z,58.33
2023-03-30T09:29:18.758Z,58.16
2023-03-30T09:32:32.681Z,58.06
2023-03-30T09:35:43.515Z,57.88
2023-03-30T09:38:45.046Z,57.79
2023-03-30T09:42:33.665Z,57.62
2023-03-30T09:45:35.532Z,57.49
2023-03-30T09:48:43.869Z,57.47
2023-03-30T09:52:20.581Z,57.36
2023-03-30T09:55:21.883Z,57.35
2023-03-30T09:58:31.231Z,57.19
2023-03-30T10:01:37.296Z,57.13
2023-03-30T10:04:54.558Z,57.16
2023-03-30T10:07:58.613Z,57.19
2023-03-30T10:11:00.538Z,57.36
2023-03-30T10:14:02.400Z,57.27
2023-03-30T10:17:04.265Z,57.15
2023-03-30T10:20:22.875Z,56.99
2023-03-30T10:23:39.287Z,56.82
2023-03-30T10:26:45.215Z,56.70
2023-03-30T10:29:51.808Z,56.72
2023-03-30T10:32:54.525Z,56.58
2023-03-30T10:35:59.899Z,56.53
2023-03-30T10:39:08.501Z,56.55
2023-03-30T10:42:15.424Z,56.59
2023-03-30T10:45:19.256Z,56.43
2023-03-30T10:48:50.527Z,56.41
2023-03-30T10:52:13.835Z,56.37
2023-03-30T10:55:21.448Z,56.26
2023-03-30T10:58:52.776Z,56.21
2023-03-30T11:01:56.457Z,56.20
2023-03-30T11:05:03.541Z,56.08
2023-03-30T11:08:11.304Z,55.92
2023-03-30T11:11:21.154Z,55.98
2023-03-30T11:14:27.553Z,55.91
2023-03-30T11:18:06.838Z,55.74
2023-03-30T11:21:12.656Z,55.62
2023-03-30T11:24:20.090Z,55.58
2023-03-30T11:27:30.047Z,55.49
2023-03-30T11:30:31.589Z,55.51
2023-03-30T11:33:46.770Z,55.38
2023-03-30T11:36:56.336Z,55.29
2023-03-30T11:40:11.221Z,55.10
2023-03-30T11:43:14.434Z,55.17
2023-03-30T11:46:34.543Z,55.08
2023-03-30T11:49:54.224Z,54.87
2023-03-30T11:53:12.751Z,55.01
2023-03-30T11:56:27.173Z,54.86
2023-03-30T11:59:46.301Z,54.77
2023-03-30T12:03:15.439Z,54.56
2023-03-30T12:06:57.493Z,54.38
2023-03-30T12:10:08.145Z,54.00
2023-03-30T12:13:14.346Z,53.90
2023-03-30T12:16:31.180Z,53.78
2023-03-30T12:20:06.280Z,53.57
2023-03-30T12:24:07.465Z,53.35
2023-03-30T12:27:11.999Z,53.37
2023-03-30T12:30:24.052Z,53.25
2023-03-30T12:33:36.452Z,52.88
2023-03-30T12:36:42.413Z,52.54
2023-03-30T12:39:49.402Z,52.47
2023-03-30T12:43:00.420Z,52.08
2023-03-30T12:46:13.307Z,52.04
2023-03-30T12:49:38.745Z,51.88
2023-03-30T12:52:53.936Z,51.60
2023-03-30T12:56:06.467Z,51.52
2023-03-30T12:59:26.470Z,51.17
2023-03-30T13:02:46.052Z,51.01
2023-03-30T13:05:50.967Z,50.72
2023-03-30T13:08:55.385Z,50.64
2023-03-30T13:11:59.223Z,50.47
2023-03-30T13:15:38.695Z,50.31
2023-03-30T13:18:52.350Z,50.47
2023-03-30T13:22:16.425Z,50.19
2023-03-30T13:25:17.326Z,50.21
2023-03-30T13:28:54.077Z,49.85
2023-03-30T13:32:16.781Z,49.63
2023-03-30T13:35:32.554Z,49.37
2023-03-30T13:38:36.761Z,49.41
2023-03-30T13:41:48.400Z,49.30
2023-03-30T13:44:57.756Z,49.40
2023-03-30T13:48:08.076Z,49.09
2023-03-30T13:51:13.674Z,49.09
2023-03-30T13:54:25.894Z,48.93
2023-03-30T13:57:35.305Z,48.31
2023-03-30T14:00:48.536Z,47.97
2023-03-30T14:03:55.360Z,47.61
2023-03-30T14:06:57.712Z,47.26
2023-03-30T14:10:08.814Z,47.12
2023-03-30T14:13:10.972Z,46.93
2023-03-30T14:16:18.423Z,46.63
2023-03-30T14:19:30.171Z,46.44
2023-03-30T14:22:36.291Z,46.35
2023-03-30T14:25:40.750Z,46.10
2023-03-30T14:28:41.919Z,45.93
2023-03-30T14:31:47.222Z,45.78
2023-03-30T14:34:53.203Z,45.78
2023-03-30T14:37:55.791Z,45.77
2023-03-30T14:41:00.222Z,45.68
2023-03-30T14:44:03.701Z,45.70
2023-03-30T14:47:04.958Z,45.61
2023-03-30T14:50:08.709Z,45.66
2023-03-30T14:53:10.078Z,45.82
2023-03-30T14:56:11.418Z,45.80
2023-03-30T14:59:15.346Z,45.97
2023-03-30T15:02:26.117Z,45.98
2023-03-30T15:05:34.213Z,45.96
2023-03-30T15:08:39.557Z,45.90
2023-03-30T15:11:40.647Z,45.88
2023-03-30T15:14:41.788Z,45.77
2023-03-30T15:17:48.525Z,45.56
2023-03-30T15:20:49.636Z,45.38
2023-03-30T15:23:50.632Z,45.02
2023-03-30T15:26:54.716Z,44.97
2023-03-30T15:29:55.993Z,44.79
2023-03-30T15:32:57.198Z,44.76
2023-03-30T15:36:07.222Z,44.52
2023-03-30T15:39:21.864Z,44.50
2023-03-30T15:42:31.744Z,44.61
2023-03-30T15:45:35.239Z,44.74
2023-03-30T15:48:43.133Z,44.78
2023-03-30T15:51:54.204Z,45.04
2023-03-30T15:54:55.174Z,45.17
2023-03-30T15:57:56.274Z,45.17
2023-03-30T16:00:57.458Z,45.35
2023-03-30T16:07:12.602Z,45.43
2023-03-30T16:10:23.948Z,45.81
2023-03-30T16:13:24.948Z,45.91
2023-03-30T16:16:26.089Z,46.00
2023-03-30T16:19:27.018Z,46.01
2023-03-30T16:22:27.999Z,46.06
2023-03-30T16:28:32.852Z,46.29
2023-03-30T16:31:34.252Z,46.35
2023-03-30T16:34:38.741Z,46.54
2023-03-30T16:37:41.273Z,46.51
2023-03-30T16:40:52.094Z,46.67
2023-03-30T16:43:53.053Z,46.80
2023-03-30T16:46:54.579Z,46.99
2023-03-30T16:49:55.514Z,47.05
2023-03-30T16:52:56.527Z,47.16
2023-03-30T16:55:57.552Z,47.36
2023-03-30T16:59:08.788Z,47.40
2023-03-30T17:02:13.002Z,47.59
2023-03-30T17:05:17.244Z,47.58
2023-03-30T17:08:21.138Z,47.98
2023-03-30T17:11:24.937Z,47.96
2023-03-30T17:14:27.002Z,48.09
2023-03-30T17:17:28.091Z,48.37
2023-03-30T17:20:34.013Z,48.46
2023-03-30T17:23:35.189Z,48.68
2023-03-30T17:26:36.262Z,48.88
2023-03-30T17:29:37.997Z,49.11
2023-03-30T17:32:39.070Z,49.26
2023-03-30T17:35:40.422Z,49.27
2023-03-30T17:38:43.265Z,49.57
2023-03-30T17:41:44.808Z,49.80
2023-03-30T17:44:45.766Z,49.73
2023-03-30T17:47:46.979Z,49.98
2023-03-30T17:50:49.661Z,50.23
2023-03-30T17:53:50.687Z,50.30
2023-03-30T17:56:51.718Z,50.52
2023-03-30T17:59:52.725Z,50.54
2023-03-30T18:02:54.318Z,50.66
2023-03-30T18:05:56.449Z,50.78
2023-03-30T18:08:57.360Z,50.87
2023-03-30T18:11:59.540Z,50.99
2023-03-30T18:15:00.547Z,51.27
2023-03-30T18:18:01.863Z,51.50
2023-03-30T18:21:04.510Z,51.70
2023-03-30T18:24:07.049Z,51.89
2023-03-30T18:27:08.094Z,52.01
2023-03-30T18:30:20.689Z,52.04
2023-03-30T18:33:22.031Z,52.26
2023-03-30T18:36:23.096Z,52.42
2023-03-30T18:39:24.022Z,52.62
2023-03-30T18:42:24.937Z,52.79
2023-03-30T18:45:37.050Z,52.88
2023-03-30T18:48:40.900Z,53.19
2023-03-30T18:51:44.313Z,53.31
2023-03-30T18:54:45.512Z,53.35
2023-03-30T18:57:58.777Z,53.57
2023-03-30T19:01:00.321Z,53.67
2023-03-30T19:04:01.708Z,53.75
2023-03-30T19:07:02.892Z,53.90
2023-03-30T19:10:06.249Z,54.07
2023-03-30T19:13:09.336Z,54.30
2023-03-30T19:16:21.617Z,54.47
2023-03-30T19:19:22.834Z,54.75
2023-03-30T19:22:24.159Z,54.82
2023-03-30T19:25:31.164Z,54.98
2023-03-30T19:28:32.900Z,55.10
2023-03-30T19:31:35.958Z,55.23
2023-03-30T19:34:36.983Z,55.34
2023-03-30T19:37:40.466Z,55.48
2023-03-30T19:40:41.854Z,55.68
2023-03-30T19:43:44.854Z,55.76
2023-03-30T19:46:45.908Z,55.84
2023-03-30T19:49:49.628Z,56.04
2023-03-30T19:52:54.469Z,56.04
2023-03-30T19:55:57.937Z,56.16
2023-03-30T19:59:05.239Z,56.27
2023-03-30T20:02:06.393Z,56.39
2023-03-30T20:05:30.787Z,56.59
2023-03-30T20:08:32.213Z,56.62
2023-03-30T20:11:33.545Z,56.82
2023-03-30T20:14:34.859Z,56.79
2023-03-30T20:17:37.605Z,57.09
2023-03-30T20:20:39.872Z,57.18
2023-03-30T20:23:40.829Z,57.33
2023-03-30T20:26:51.223Z,57.59
2023-03-30T20:29:52.260Z,57.79
2023-03-30T20:33:06.788Z,58.03
2023-03-30T20:36:09.284Z,58.35
2023-03-30T20:39:13.201Z,58.37
2023-03-30T20:42:17.528Z,58.48
2023-03-30T20:45:25.253Z,58.45
2023-03-30T20:48:32.881Z,58.43
2023-03-30T20:51:35.341Z,58.47
2023-03-30T20:54:37.097Z,58.49
2023-03-30T20:57:38.171Z,58.49
2023-03-30T21:00:39.171Z,58.65
2023-03-30T21:03:43.525Z,58.73
2023-03-30T21:06:45.506Z,58.77
2023-03-30T21:09:55.872Z,58.90
2023-03-30T21:12:56.826Z,59.05
2023-03-30T21:16:07.491Z,59.03
2023-03-30T21:19:08.849Z,59.15
2023-03-30T21:22:09.886Z,59.39
2023-03-30T21:25:12.169Z,59.60
2023-03-30T21:28:14.355Z,59.76
2023-03-30T21:31:16.470Z,59.93
2023-03-30T21:34:18.175Z,60.11
2023-03-30T21:37:19.295Z,60.20
2023-03-30T21:40:20.430Z,60.19
2023-03-30T21:43:21.389Z,60.20
2023-03-30T21:46:26.778Z,60.34
2023-03-30T21:49:39.008Z,60.34
2023-03-30T21:52:42.545Z,60.34
2023-03-30T21:55:46.057Z,60.49
2023-03-30T21:58:47.357Z,60.67
2023-03-30T22:01:57.343Z,60.76
2023-03-30T22:04:59.300Z,60.90
2023-03-30T22:08:03.621Z,60.94
2023-03-30T22:11:12.235Z,61.03
2023-03-30T22:14:13.328Z,61.21
2023-03-30T22:17:14.362Z,61.44
2023-03-30T22:20:16.198Z,61.39
2023-03-30T22:23:17.416Z,61.56
2023-03-30T22:26:18.606Z,61.64
2023-03-30T22:29:20.191Z,61.80
2023-03-30T22:32:21.501Z,61.90
2023-03-30T22:35:22.764Z,61.87
2023-03-30T22:38:23.764Z,62.14
2023-03-30T22:41:34.265Z,62.37
2023-03-30T22:44:44.042Z,62.58
2023-03-30T22:47:45.189Z,62.75
2023-03-30T22:50:46.329Z,63.12
2023-03-30T22:53:50.459Z,63.18
2023-03-30T22:56:51.407Z,63.26
2023-03-30T22:59:52.543Z,63.30
2023-03-30T23:03:02.560Z,63.48
2023-03-30T23:06:03.934Z,63.48
2023-03-30T23:09:06.068Z,63.52
2023-03-30T23:12:07.764Z,63.63
2023-03-30T23:15:10.042Z,63.87
2023-03-30T23:18:11.579Z,63.76
2023-03-30T23:21:13.291Z,63.85
2023-03-30T23:24:23.397Z,63.97
2023-03-30T23:27:24.386Z,63.99
2023-03-30T23:30:25.572Z,64.20
2023-03-30T23:33:26.607Z,64.36
2023-03-30T23:36:30.520Z,64.54
2023-03-30T23:39:32.360Z,64.56
2023-03-30T23:42:35.945Z,64.73
2023-03-30T23:45:38.001Z,64.80
2023-03-30T23:48:39.727Z,64.77
2023-03-30T23:51:40.817Z,65.03
2023-03-30T23:54:41.915Z,64.99
2023-03-30T23:57:46.108Z,64.99
